Hozan Maru — JJ4010 — position and weather

sailwx.info

Track history (hours):
 
Tides and Currents Weather Stations Pressure Air Temp Water Temp Dewpoint Dewpoint Depression Visibility Wind Speed Wind Dir Waves Ship Positions

Hozan Maru

Last reported at 2014-Sep-02 21:33 UTC. Time now 2014-Sep-02 21:43 UTC.
Position N 34°34' E 135°24'.

Length 38 m; draft 3.6 m.

Type: Tug. MMSI: 431401501.

Date/timePositionNaut miles runAvg speedWind from/ knotsBaromVisibWave heightAir tempDewpointWater temp
2014-Sep-02 21:33N 34°34' E 135°24'7 0.4
2014-Sep-02 03:04N 34°40' E 135°27'5 9.3
2014-Sep-02 02:33N 34°40' E 135°21'5 5.4
2014-Sep-02 01:33N 34°41' E 135°15'8 7.7
2014-Sep-02 00:32N 34°35' E 135°21'5 3.9
2014-Sep-01 23:22N 34°31' E 135°24'6 7.4
2014-Sep-01 22:33N 34°37' E 135°23'3 0.2
2014-Sep-01 07:33N 34°39' E 135°25'1 0.9
2014-Sep-01 06:33N 34°39' E 135°26'0 0.0
2014-Sep-01 05:33N 34°39' E 135°26'0 0.0
2014-Sep-01 04:33N 34°39' E 135°26'0 0.0
2014-Sep-01 03:33N 34°39' E 135°26'0 0.0
2014-Sep-01 02:33N 34°39' E 135°26'1 1.4
2014-Sep-01 01:33N 34°39' E 135°24'5 4.8
2014-Sep-01 00:28N 34°33' E 135°24'2 1.7
2014-Aug-31 23:32N 34°33' E 135°26'3 3.4
2014-Aug-31 22:33N 34°31' E 135°23'2 2.5
2014-Aug-31 21:33N 34°33' E 135°22'6 0.5
2014-Aug-31 09:33N 34°39' E 135°26'2 0.0
2014-Aug-29 09:14N 34°40' E 135°27'6 7.8
2014-Aug-29 08:32N 34°36' E 135°23'4 4.4
2014-Aug-29 07:33N 34°31' E 135°24'4 4.3
2014-Aug-29 06:33N 34°33' E 135°20'6 6.4
2014-Aug-29 05:33N 34°34' E 135°12'7 6.7
2014-Aug-29 04:33N 34°35' E 135°04'5 4.8
2014-Aug-29 03:33N 34°37' E 134°59'3 2.6
2014-Aug-29 02:14N 34°37' E 134°55'1 0.1
2014-Aug-28 10:33N 34°37' E 134°56'1212.0
2014-Aug-28 09:33N 34°35' E 135°10'1211.9
2014-Aug-28 08:32N 34°32' E 135°24'0 0.4
2014-Aug-28 07:33N 34°31' E 135°25'1 0.9
2014-Aug-28 06:33N 34°32' E 135°24'5 5.2
2014-Aug-28 05:33N 34°33' E 135°18'6 5.7
2014-Aug-28 04:33N 34°34' E 135°11'6 6.0
2014-Aug-28 03:33N 34°35' E 135°04'8 3.9
2014-Aug-28 01:33N 34°37' E 134°54'6 2.8
2014-Aug-27 23:33N 34°38' E 134°48'2 0.1
2014-Aug-27 03:26N 34°40' E 134°49'1 0.1
2014-Aug-26 21:33N 34°40' E 134°48'8 0.4
2014-Aug-26 01:33N 34°38' E 134°57'1212.5
2014-Aug-26 00:33N 34°35' E 135°12'1110.9
2014-Aug-25 23:33N 34°33' E 135°25'0 0.2
2014-Aug-25 22:33N 34°33' E 135°24'7 0.3
2014-Aug-24 23:19N 34°40' E 135°27'3 4.3
2014-Aug-24 22:33N 34°39' E 135°24'3 3.1
2014-Aug-24 21:32N 34°40' E 135°27'0 0.0
2014-Aug-24 07:23N 34°40' E 135°27'7 8.8
2014-Aug-24 06:33N 34°34' E 135°24'2 1.6
2014-Aug-24 05:33N 34°33' E 135°26'0 0.4
2014-Aug-24 04:33N 34°33' E 135°27'0 0.0
2014-Aug-24 03:33N 34°33' E 135°27'0 0.0
2014-Aug-24 02:33N 34°33' E 135°27'0 0.0
2014-Aug-24 01:33N 34°33' E 135°27'6 5.7
2014-Aug-24 00:33N 34°38' E 135°24'  
Track history (hours):
 
Tides and Currents Weather Stations Pressure Air Temp Water Temp Dewpoint Dewpoint Depression Visibility Wind Speed Wind Dir Waves Ship Positions

Hozan Maru

Last reported at 2014-Sep-02 21:33 UTC. Time now 2014-Sep-02 21:43 UTC.
Position N 34°34' E 135°24'.

Length 38 m; draft 3.6 m.

Type: Tug. MMSI: 431401501.

Date/timePositionNaut miles runAvg speedWind from/ knotsBaromVisibWave heightAir tempDewpointWater temp
2014-Sep-02 21:33N 34°34' E 135°24'7 0.4
2014-Sep-02 03:04N 34°40' E 135°27'5 9.3
2014-Sep-02 02:33N 34°40' E 135°21'5 5.4
2014-Sep-02 01:33N 34°41' E 135°15'8 7.7
2014-Sep-02 00:32N 34°35' E 135°21'5 3.9
2014-Sep-01 23:22N 34°31' E 135°24'6 7.4
2014-Sep-01 22:33N 34°37' E 135°23'3 0.2
2014-Sep-01 07:33N 34°39' E 135°25'1 0.9
2014-Sep-01 06:33N 34°39' E 135°26'0 0.0
2014-Sep-01 05:33N 34°39' E 135°26'0 0.0
2014-Sep-01 04:33N 34°39' E 135°26'0 0.0
2014-Sep-01 03:33N 34°39' E 135°26'0 0.0
2014-Sep-01 02:33N 34°39' E 135°26'1 1.4
2014-Sep-01 01:33N 34°39' E 135°24'5 4.8
2014-Sep-01 00:28N 34°33' E 135°24'2 1.7
2014-Aug-31 23:32N 34°33' E 135°26'3 3.4
2014-Aug-31 22:33N 34°31' E 135°23'2 2.5
2014-Aug-31 21:33N 34°33' E 135°22'6 0.5
2014-Aug-31 09:33N 34°39' E 135°26'2 0.0
2014-Aug-29 09:14N 34°40' E 135°27'6 7.8
2014-Aug-29 08:32N 34°36' E 135°23'4 4.4
2014-Aug-29 07:33N 34°31' E 135°24'4 4.3
2014-Aug-29 06:33N 34°33' E 135°20'6 6.4
2014-Aug-29 05:33N 34°34' E 135°12'7 6.7
2014-Aug-29 04:33N 34°35' E 135°04'5 4.8
2014-Aug-29 03:33N 34°37' E 134°59'3 2.6
2014-Aug-29 02:14N 34°37' E 134°55'1 0.1
2014-Aug-28 10:33N 34°37' E 134°56'1212.0
2014-Aug-28 09:33N 34°35' E 135°10'1211.9
2014-Aug-28 08:32N 34°32' E 135°24'0 0.4
2014-Aug-28 07:33N 34°31' E 135°25'1 0.9
2014-Aug-28 06:33N 34°32' E 135°24'5 5.2
2014-Aug-28 05:33N 34°33' E 135°18'6 5.7
2014-Aug-28 04:33N 34°34' E 135°11'6 6.0
2014-Aug-28 03:33N 34°35' E 135°04'8 3.9
2014-Aug-28 01:33N 34°37' E 134°54'6 2.8
2014-Aug-27 23:33N 34°38' E 134°48'2 0.1
2014-Aug-27 03:26N 34°40' E 134°49'1 0.1
2014-Aug-26 21:33N 34°40' E 134°48'8 0.4
2014-Aug-26 01:33N 34°38' E 134°57'1212.5
2014-Aug-26 00:33N 34°35' E 135°12'1110.9
2014-Aug-25 23:33N 34°33' E 135°25'0 0.2
2014-Aug-25 22:33N 34°33' E 135°24'7 0.3
2014-Aug-24 23:19N 34°40' E 135°27'3 4.3
2014-Aug-24 22:33N 34°39' E 135°24'3 3.1
2014-Aug-24 21:32N 34°40' E 135°27'0 0.0
2014-Aug-24 07:23N 34°40' E 135°27'7 8.8
2014-Aug-24 06:33N 34°34' E 135°24'2 1.6
2014-Aug-24 05:33N 34°33' E 135°26'0 0.4
2014-Aug-24 04:33N 34°33' E 135°27'0 0.0
2014-Aug-24 03:33N 34°33' E 135°27'0 0.0
2014-Aug-24 02:33N 34°33' E 135°27'0 0.0
2014-Aug-24 01:33N 34°33' E 135°27'6 5.7
2014-Aug-24 00:33N 34°38' E 135°24'  

Dump ship's entire track history